Time;durP1;ratioP1;P1;durP2;ratioP2;P2;SDS_P1;SDS_P2;PMS_P1;PMS_P2;Temp;Humidity;BMP_temperature;BMP_pressure;BME280_temperature;BME280_humidity;BME280_pressure;Samples;Min_cycle;Max_cycle;Signal;HPM_P1;HPM_P2
2022/11/16 00:03:51;;;;;;;37.40;22.00;;;;;;;3.59;100.00;98879.10;431796;1282;142907;-62
2022/11/16 00:13:57;;;;;;;48.50;24.80;;;;;;;3.49;100.00;98862.81;425019;1278;145940;-62
2022/11/16 00:24:04;;;;;;;40.40;22.80;;;;;;;3.41;100.00;98841.20;420148;1277;196045;-62
2022/11/16 00:34:10;;;;;;;37.70;22.00;;;;;;;3.35;100.00;98840.09;421385;1282;142849;-62
2022/11/16 00:44:16;;;;;;;39.20;18.90;;;;;;;3.32;100.00;98848.52;419706;1278;143495;-62
2022/11/16 00:54:22;;;;;;;41.40;22.00;;;;;;;3.28;100.00;98841.45;419941;1274;143204;-62
2022/11/16 01:04:28;;;;;;;39.80;21.20;;;;;;;3.22;100.00;98830.63;423296;1278;146128;-62
2022/11/16 01:14:35;;;;;;;39.90;21.00;;;;;;;3.17;100.00;98827.59;420613;1277;146785;-62
2022/11/16 01:24:42;;;;;;;42.00;20.50;;;;;;;3.18;100.00;98818.04;419563;1278;142850;-62
2022/11/16 01:34:48;;;;;;;36.80;20.30;;;;;;;3.18;100.00;98814.20;420604;1278;145808;-60
2022/11/16 01:45:00;;;;;;;37.60;20.20;;;;;;;3.16;100.00;98806.00;420643;1277;146033;-62
2022/11/16 01:55:08;;;;;;;28.50;18.10;;;;;;;3.17;100.00;98800.61;421300;1277;143731;-63
2022/11/16 02:05:17;;;;;;;42.90;22.90;;;;;;;3.16;100.00;98789.40;422693;1278;144328;-62
2022/11/16 02:15:28;;;;;;;31.20;17.20;;;;;;;3.15;100.00;98783.08;418912;1281;143435;-62
2022/11/16 02:25:41;;;;;;;33.20;18.10;;;;;;;3.12;100.00;98758.83;421941;1277;144761;-62
2022/11/16 02:35:51;;;;;;;29.30;16.60;;;;;;;3.10;100.00;98759.09;419755;1281;143024;-62
2022/11/16 02:45:59;;;;;;;30.70;17.90;;;;;;;3.08;100.00;98743.61;420817;1277;142544;-63
2022/11/16 02:56:05;;;;;;;33.50;16.80;;;;;;;3.02;100.00;98742.15;423347;1280;145726;-61
2022/11/16 03:06:17;;;;;;;35.50;19.90;;;;;;;2.99;100.00;98739.86;419858;1281;143197;-62
2022/11/16 03:16:26;;;;;;;29.40;17.40;;;;;;;2.89;100.00;98733.77;421498;1281;143259;-62
2022/11/16 03:26:39;;;;;;;26.20;16.60;;;;;;;2.82;100.00;98719.20;422724;1277;183859;-62
2022/11/16 03:36:47;;;;;;;32.50;17.70;;;;;;;2.80;100.00;98721.17;422088;1281;200339;-62
2022/11/16 03:46:53;;;;;;;28.60;17.30;;;;;;;2.81;100.00;98726.15;424092;1281;144339;-62
2022/11/16 03:56:59;;;;;;;27.80;16.50;;;;;;;2.79;100.00;98724.02;419913;1282;161112;-62
2022/11/16 04:38:16;;;;;;;23.90;12.70;;;;;;;2.80;100.00;98700.96;419867;1277;145624;-62
2022/11/16 04:48:21;;;;;;;19.00;11.40;;;;;;;2.78;100.00;98706.75;419543;1280;144073;-62
2022/11/16 04:58:27;;;;;;;21.00;12.30;;;;;;;2.79;100.00;98702.89;421995;1280;143181;-62
2022/11/16 05:08:33;;;;;;;26.70;15.40;;;;;;;2.82;100.00;98698.46;420389;1276;147936;-62
2022/11/16 05:18:40;;;;;;;23.80;14.00;;;;;;;2.83;100.00;98704.11;421218;1281;195936;-62
2022/11/16 05:28:45;;;;;;;24.30;14.50;;;;;;;2.86;100.00;98701.36;419505;1284;202081;-62
2022/11/16 05:38:51;;;;;;;25.10;13.20;;;;;;;2.87;100.00;98686.29;420978;1280;143293;-62
2022/11/16 05:49:01;;;;;;;21.70;14.50;;;;;;;2.91;100.00;98685.73;426018;1284;146290;-62
2022/11/16 05:59:06;;;;;;;23.80;12.90;;;;;;;2.97;100.00;98679.80;433623;1280;143831;-64
2022/11/16 06:09:19;;;;;;;20.80;14.30;;;;;;;3.01;100.00;98678.58;421528;1277;143055;-62
2022/11/16 06:19:25;;;;;;;18.50;11.90;;;;;;;3.01;100.00;98669.39;422219;1291;144367;-63
2022/11/16 06:29:36;;;;;;;21.90;13.50;;;;;;;3.05;100.00;98671.79;435347;1288;184500;-63
2022/11/16 06:39:42;;;;;;;21.70;13.90;;;;;;;3.11;100.00;98661.16;436191;1277;197343;-63
2022/11/16 06:49:47;;;;;;;16.80;11.60;;;;;;;3.12;100.00;98652.98;435964;1288;153098;-64
2022/11/16 06:59:54;;;;;;;18.70;12.10;;;;;;;3.12;100.00;98652.12;435350;1287;143322;-63
2022/11/16 07:09:59;;;;;;;23.20;13.20;;;;;;;3.11;100.00;98645.05;429422;1281;143214;-62
2022/11/16 07:20:07;;;;;;;15.60;10.60;;;;;;;3.08;100.00;98637.91;419693;1285;143121;-61
2022/11/16 07:30:14;;;;;;;15.50;10.40;;;;;;;3.05;100.00;98647.77;435515;1283;143435;-63
2022/11/16 07:40:20;;;;;;;13.60;8.60;;;;;;;3.09;100.00;98640.46;436147;1282;143399;-62
2022/11/16 07:50:25;;;;;;;16.40;9.70;;;;;;;3.18;100.00;98642.98;436170;1290;145097;-62
2022/11/16 08:00:31;;;;;;;17.30;8.70;;;;;;;3.25;100.00;98646.10;435525;1283;143302;-62
2022/11/16 08:10:37;;;;;;;11.30;8.10;;;;;;;3.32;100.00;98643.16;431680;1288;142660;-62
2022/11/16 08:20:44;;;;;;;12.20;8.80;;;;;;;3.37;100.00;98638.25;435475;1282;144301;-62
2022/11/16 08:30:51;;;;;;;13.30;8.80;;;;;;;3.43;100.00;98639.18;436154;1287;143334;-63
2022/11/16 08:40:58;;;;;;;10.40;8.10;;;;;;;3.51;100.00;98638.27;436228;1280;143871;-62
2022/11/16 08:51:06;;;;;;;12.70;7.90;;;;;;;3.54;100.00;98638.45;435513;1284;144632;-63
2022/11/16 09:01:29;;;;;;;13.20;9.50;;;;;;;3.57;100.00;98633.98;436189;1288;142972;-63
2022/11/16 09:11:35;;;;;;;10.60;7.80;;;;;;;3.64;100.00;98632.06;430200;1280;142197;-62
2022/11/16 09:21:40;;;;;;;14.60;11.70;;;;;;;3.67;100.00;98630.38;431390;1280;144612;-63
2022/11/16 09:31:46;;;;;;;14.10;10.50;;;;;;;3.74;100.00;98629.34;436235;1283;197936;-63
2022/11/16 09:42:07;;;;;;;14.50;10.40;;;;;;;3.81;100.00;98635.38;435435;1284;142422;-63
2022/11/16 09:52:28;;;;;;;10.00;8.70;;;;;;;3.85;99.87;98621.69;436201;1284;142345;-63
2022/11/16 10:02:41;;;;;;;14.50;10.30;;;;;;;3.84;99.75;98609.06;435717;1280;142551;-62
2022/11/16 10:12:52;;;;;;;9.20;8.10;;;;;;;3.81;99.63;98602.12;436148;1284;142529;-62
2022/11/16 10:23:10;;;;;;;12.70;7.70;;;;;;;3.81;99.69;98595.41;436181;1280;141979;-62
2022/11/16 10:33:20;;;;;;;9.80;8.10;;;;;;;3.79;99.86;98592.88;435469;1283;142871;-62
2022/11/16 10:43:29;;;;;;;9.80;7.80;;;;;;;3.80;99.89;98582.64;436213;1282;143465;-62
2022/11/16 10:53:37;;;;;;;10.90;7.50;;;;;;;3.72;99.92;98571.27;435700;1275;142337;-63
2022/11/16 11:03:43;;;;;;;10.60;7.90;;;;;;;3.68;99.97;98568.02;436198;1281;143663;-63
2022/11/16 11:14:04;;;;;;;10.50;8.20;;;;;;;3.68;100.00;98571.64;428968;1280;142269;-67
2022/11/16 11:24:17;;;;;;;8.30;6.50;;;;;;;3.70;100.00;98562.37;435463;1274;142261;-62
2022/11/16 11:34:46;;;;;;;9.50;6.70;;;;;;;3.72;99.80;98557.60;436203;1290;142505;-66
2022/11/16 11:45:02;;;;;;;10.80;6.30;;;;;;;3.77;99.73;98558.16;435503;1280;142838;-66
2022/11/16 11:55:14;;;;;;;8.60;5.90;;;;;;;3.78;99.36;98552.26;436131;1282;141963;-65
2022/11/16 12:05:46;;;;;;;10.20;7.60;;;;;;;3.74;99.24;98557.15;436198;1276;142279;-66
2022/11/16 12:16:07;;;;;;;5.50;4.60;;;;;;;3.68;99.42;98560.09;435831;1284;196446;-66
2022/11/16 12:26:20;;;;;;;8.40;5.40;;;;;;;3.62;99.37;98554.64;436216;1285;142341;-66
2022/11/16 12:36:36;;;;;;;12.00;6.60;;;;;;;3.53;99.62;98556.99;435463;1284;143768;-65
2022/11/16 12:46:48;;;;;;;6.90;5.40;;;;;;;3.51;99.78;98557.80;436164;1280;153253;-66
2022/11/16 12:57:01;;;;;;;7.80;4.70;;;;;;;3.43;99.85;98567.90;435482;1274;142789;-65
2022/11/16 13:07:12;;;;;;;4.30;3.20;;;;;;;3.30;99.70;98575.66;436213;1284;143937;-66
2022/11/16 13:17:21;;;;;;;6.10;3.80;;;;;;;3.19;99.67;98572.19;432376;1280;143384;-66
2022/11/16 13:27:37;;;;;;;6.00;5.30;;;;;;;3.12;99.68;98575.33;424693;1285;142706;-66
2022/11/16 13:37:51;;;;;;;3.50;3.20;;;;;;;3.03;100.00;98565.40;419568;1278;199199;-65
2022/11/16 13:47:58;;;;;;;5.70;4.40;;;;;;;2.90;99.78;98564.30;435475;1283;143248;-65
2022/11/16 13:58:06;;;;;;;4.30;3.90;;;;;;;2.72;99.70;98562.04;436211;1288;141624;-65
2022/11/16 14:08:42;;;;;;;4.50;3.60;;;;;;;2.62;99.84;98549.70;432744;1283;142768;-65
2022/11/16 14:18:50;;;;;;;6.70;4.40;;;;;;;2.60;99.96;98542.94;431995;1277;211126;-65
2022/11/16 14:29:08;;;;;;;;;;;;;;;2.53;99.91;98545.82;436083;1280;143816;-65
2022/11/16 14:39:24;;;;;;;3.70;3.00;;;;;;;2.46;100.00;98535.27;435767;1277;128902;-65
2022/11/16 14:49:31;;;;;;;3.50;3.10;;;;;;;2.44;100.00;98548.17;436221;1282;144250;-65
2022/11/16 14:59:37;;;;;;;3.30;2.70;;;;;;;2.47;100.00;98546.30;435455;1284;143088;-64
2022/11/16 15:09:47;;;;;;;4.30;3.70;;;;;;;2.52;100.00;98546.57;434233;1282;143382;-65
2022/11/16 15:19:58;;;;;;;3.80;3.30;;;;;;;2.57;100.00;98544.77;419754;1277;142820;-65
2022/11/16 15:30:13;;;;;;;5.40;4.60;;;;;;;2.60;100.00;98539.80;435366;1283;201287;-65
2022/11/16 15:40:19;;;;;;;7.50;6.10;;;;;;;2.65;100.00;98543.02;434053;1280;143854;-65
2022/11/16 15:50:26;;;;;;;11.50;6.80;;;;;;;2.66;100.00;98553.67;419323;1275;144036;-64
2022/11/16 16:00:34;;;;;;;6.00;5.40;;;;;;;2.59;100.00;98564.02;435066;1284;145330;-65
2022/11/16 16:10:39;;;;;;;8.90;5.90;;;;;;;2.46;100.00;98580.36;435906;1284;143766;-65
2022/11/16 16:20:48;;;;;;;7.50;5.10;;;;;;;2.29;100.00;98581.34;435086;1283;143654;-65
2022/11/16 16:30:54;;;;;;;5.90;5.10;;;;;;;2.17;100.00;98591.70;435934;1283;143316;-66
2022/11/16 16:41:02;;;;;;;6.20;5.40;;;;;;;1.98;100.00;98581.14;428633;1278;145025;-65
2022/11/16 16:51:12;;;;;;;8.50;6.90;;;;;;;1.84;100.00;98581.10;435087;1282;144569;-65
2022/11/16 17:01:18;;;;;;;6.80;6.10;;;;;;;1.71;100.00;98580.80;435887;1283;142919;-65
2022/11/16 17:11:24;;;;;;;8.90;7.90;;;;;;;1.58;100.00;98581.33;435818;1282;143911;-66
2022/11/16 17:21:30;;;;;;;9.50;8.50;;;;;;;1.48;100.00;98583.66;419277;1283;142611;-65
2022/11/16 17:31:36;;;;;;;12.20;8.20;;;;;;;1.37;100.00;98578.60;435814;1283;156643;-65
2022/11/16 17:41:41;;;;;;;10.10;8.80;;;;;;;1.30;100.00;98585.99;435343;1281;143316;-66
2022/11/16 17:51:47;;;;;;;10.50;8.50;;;;;;;1.27;100.00;98597.30;436062;1283;142938;-65
2022/11/16 18:01:52;;;;;;;11.00;9.40;;;;;;;1.28;100.00;98605.90;436101;1284;144165;-65
2022/11/16 18:11:59;;;;;;;9.70;8.70;;;;;;;1.30;100.00;98604.61;431601;1277;144445;-65
2022/11/16 18:22:05;;;;;;;12.50;10.60;;;;;;;1.32;100.00;98602.44;428103;1285;142898;-65
2022/11/16 18:32:10;;;;;;;13.70;9.40;;;;;;;1.33;100.00;98599.82;421274;1282;145645;-66
2022/11/16 18:42:16;;;;;;;10.00;8.90;;;;;;;1.32;100.00;98605.20;434713;1277;144542;-65
2022/11/16 18:52:21;;;;;;;10.90;9.60;;;;;;;1.32;100.00;98607.11;433689;1284;144097;-65
2022/11/16 19:02:27;;;;;;;9.40;8.10;;;;;;;1.33;100.00;98604.48;429186;1278;199538;-65
2022/11/16 19:12:33;;;;;;;8.50;7.70;;;;;;;1.32;100.00;98601.58;435323;1283;143153;-66
2022/11/16 19:22:38;;;;;;;9.00;7.60;;;;;;;1.33;100.00;98606.54;427476;1277;143046;-65
2022/11/16 19:32:44;;;;;;;9.00;8.00;;;;;;;1.32;100.00;98603.48;420790;1280;142460;-65
2022/11/16 19:42:52;;;;;;;9.00;8.00;;;;;;;1.32;100.00;98604.88;436040;1280;143052;-65
2022/11/16 19:52:57;;;;;;;9.80;8.30;;;;;;;1.33;100.00;98601.70;433188;1283;145901;-65
2022/11/16 20:03:03;;;;;;;10.30;8.50;;;;;;;1.36;100.00;98597.08;430404;1283;143304;-65
2022/11/16 20:13:09;;;;;;;10.40;9.30;;;;;;;1.38;100.00;98595.64;428276;1284;196402;-62
2022/11/16 20:23:18;;;;;;;10.30;8.30;;;;;;;1.39;100.00;98596.80;419361;1281;142734;-63
2022/11/16 20:33:24;;;;;;;10.70;8.50;;;;;;;1.40;100.00;98603.48;434705;1280;143142;-62
2022/11/16 20:43:30;;;;;;;8.60;7.80;;;;;;;1.45;100.00;98603.80;419441;1278;144026;-62
2022/11/16 20:53:36;;;;;;;9.80;8.40;;;;;;;1.48;100.00;98614.34;433784;1285;143071;-63
2022/11/16 21:03:43;;;;;;;7.60;6.70;;;;;;;1.50;100.00;98606.67;430994;1276;143755;-62
2022/11/16 21:24:12;;;;;;;8.70;6.90;;;;;;;1.50;100.00;98603.59;432327;1281;144657;-61
2022/11/16 21:34:19;;;;;;;8.50;7.60;;;;;;;1.49;100.00;98596.39;435847;1280;143095;-61
2022/11/16 21:44:24;;;;;;;6.70;6.00;;;;;;;1.47;100.00;98603.20;436103;1285;141795;-63
2022/11/16 22:15:14;;;;;;;7.50;6.40;;;;;;;1.39;100.00;98598.52;435345;1280;145655;-63
2022/11/16 22:25:19;;;;;;;8.40;7.60;;;;;;;1.40;100.00;98604.36;433751;1286;143864;-62
2022/11/16 22:35:25;;;;;;;8.60;7.60;;;;;;;1.41;100.00;98611.92;429021;1285;143483;-63
2022/11/16 22:45:31;;;;;;;9.30;7.50;;;;;;;1.39;100.00;98618.36;420681;1285;143194;-63
2022/11/16 22:55:38;;;;;;;8.50;7.30;;;;;;;1.38;100.00;98616.14;431076;1280;144292;-62
2022/11/16 23:05:42;;;;;;;;;;;;;;;1.42;100.00;98602.39;435331;1283;143298;-62
2022/11/16 23:15:50;;;;;;;8.80;8.00;;;;;;;1.46;100.00;98595.50;435332;1284;133008;-62
2022/11/16 23:36:19;;;;;;;7.80;7.10;;;;;;;1.51;100.00;98586.64;435306;1289;143071;-62
2022/11/16 23:46:25;;;;;;;8.60;7.60;;;;;;;1.52;100.00;98590.05;436081;1281;143372;-62
2022/11/16 23:56:31;;;;;;;9.60;8.10;;;;;;;1.53;100.00;98592.77;436051;1284;143455;-63
